createdAt,value
2019-02-24T00:02:12.650Z,58.95
2019-02-24T00:07:16.339Z,59.85
2019-02-24T00:12:18.462Z,58.29
2019-02-24T00:17:23.190Z,60.41
2019-02-24T00:22:31.583Z,59.79
2019-02-24T00:27:33.618Z,60.69
2019-02-24T00:32:35.692Z,60.83
2019-02-24T00:37:40.415Z,59.38
2019-02-24T00:42:44.850Z,60.05
2019-02-24T00:47:49.668Z,60.36
2019-02-24T00:52:51.919Z,60.32
2019-02-24T00:57:56.982Z,59.81
2019-02-24T01:02:59.178Z,61.59
2019-02-24T01:08:03.051Z,60.13
2019-02-24T01:13:05.305Z,60.47
2019-02-24T01:18:09.192Z,61.14
2019-02-24T01:23:17.882Z,60.65
2019-02-24T01:28:25.365Z,61.83
2019-02-24T01:33:28.428Z,61.52
2019-02-24T01:38:38.186Z,60.17
2019-02-24T01:43:42.659Z,61.48
2019-02-24T01:48:44.652Z,61.19
2019-02-24T01:53:46.878Z,61.56
2019-02-24T01:58:48.936Z,61.66
2019-02-24T02:03:56.402Z,62.54
2019-02-24T02:08:58.470Z,62.09
2019-02-24T02:14:00.494Z,62.21
2019-02-24T02:19:02.598Z,64.21
2019-02-24T02:24:04.680Z,62.40
2019-02-24T02:29:12.799Z,63.63
2019-02-24T02:34:17.147Z,63.04
2019-02-24T02:39:20.834Z,62.04
2019-02-24T02:44:23.919Z,62.43
2019-02-24T02:49:25.918Z,63.90
2019-02-24T02:54:28.170Z,62.54
2019-02-24T02:59:31.306Z,64.10
2019-02-24T03:04:33.790Z,62.11
2019-02-24T03:09:38.395Z,61.75
2019-02-24T03:14:43.436Z,65.93
2019-02-24T03:19:47.786Z,63.51
2019-02-24T03:24:49.887Z,62.59
2019-02-24T03:29:51.976Z,62.97
2019-02-24T03:34:54.199Z,64.42
2019-02-24T03:39:56.266Z,64.54
2019-02-24T03:44:58.293Z,66.78
2019-02-24T03:50:00.375Z,66.59
2019-02-24T03:55:02.846Z,63.93
2019-02-24T04:00:05.134Z,65.99
2019-02-24T04:05:07.136Z,65.96
2019-02-24T04:10:09.159Z,65.46
2019-02-24T04:15:11.519Z,66.67
2019-02-24T04:20:19.899Z,66.96
2019-02-24T04:25:32.422Z,68.52
2019-02-24T04:30:34.666Z,69.25
2019-02-24T04:35:37.997Z,68.85
2019-02-24T04:40:43.229Z,70.34
2019-02-24T04:45:48.036Z,72.97
2019-02-24T04:50:50.036Z,73.67
2019-02-24T04:55:54.905Z,69.64
2019-02-24T05:00:59.201Z,69.59
2019-02-24T05:06:05.252Z,66.57
2019-02-24T05:11:07.283Z,67.00
2019-02-24T05:16:09.362Z,65.96
2019-02-24T05:21:15.341Z,68.24
2019-02-24T05:26:17.396Z,69.44
2019-02-24T05:31:20.624Z,69.43
2019-02-24T05:36:27.933Z,67.96
2019-02-24T05:41:30.104Z,66.44
2019-02-24T05:46:32.686Z,66.61
2019-02-24T05:51:37.499Z,68.14
2019-02-24T05:56:45.319Z,67.45
2019-02-24T06:01:47.932Z,64.74
2019-02-24T06:06:51.086Z,65.01
2019-02-24T06:11:59.129Z,68.01
2019-02-24T06:17:09.804Z,66.67
2019-02-24T06:22:12.839Z,66.57
2019-02-24T06:27:17.362Z,69.21
2019-02-24T06:32:23.276Z,69.11
2019-02-24T06:37:26.486Z,69.17
2019-02-24T06:42:28.526Z,72.94
2019-02-24T06:47:33.754Z,71.34
2019-02-24T06:52:37.901Z,71.65
2019-02-24T06:57:43.378Z,73.25
2019-02-24T07:02:47.802Z,72.68
2019-02-24T07:07:50.197Z,71.25
2019-02-24T07:12:54.546Z,72.80
2019-02-24T07:17:59.391Z,72.66
2019-02-24T07:23:05.414Z,71.58
2019-02-24T07:28:07.452Z,66.30
2019-02-24T07:33:09.535Z,72.77
2019-02-24T07:38:20.668Z,70.21
2019-02-24T07:43:22.786Z,70.85
2019-02-24T07:48:27.527Z,68.52
2019-02-24T07:53:29.775Z,68.21
2019-02-24T07:58:31.943Z,64.01
2019-02-24T08:03:34.014Z,61.87
2019-02-24T08:08:38.779Z,59.21
2019-02-24T08:13:46.230Z,59.32
2019-02-24T08:18:55.361Z,58.42
2019-02-24T08:23:59.560Z,57.34
2019-02-24T08:29:01.583Z,56.53
2019-02-24T08:34:10.543Z,55.85
2019-02-24T08:39:13.893Z,56.45
2019-02-24T08:44:18.458Z,56.09
2019-02-24T08:49:21.273Z,55.54
2019-02-24T08:54:25.627Z,54.76
2019-02-24T08:59:27.661Z,55.32
2019-02-24T09:04:29.691Z,54.91
2019-02-24T09:09:31.870Z,47.88
2019-02-24T09:14:40.205Z,52.22
2019-02-24T09:19:44.625Z,50.80
2019-02-24T09:24:46.939Z,51.21
2019-02-24T09:29:49.122Z,50.96
2019-02-24T09:34:51.574Z,52.06
2019-02-24T09:39:55.922Z,50.82
2019-02-24T09:44:58.245Z,51.22
2019-02-24T09:50:00.353Z,51.07
2019-02-24T09:55:04.030Z,51.19
2019-02-24T10:00:10.892Z,50.39
2019-02-24T10:05:12.929Z,49.46
2019-02-24T10:10:17.191Z,47.50
2019-02-24T10:15:19.226Z,47.87
2019-02-24T10:20:21.233Z,48.34
2019-02-24T10:25:23.248Z,48.07
2019-02-24T10:30:26.491Z,48.46
2019-02-24T10:35:31.839Z,47.57
2019-02-24T10:40:34.131Z,47.23
2019-02-24T10:45:41.082Z,47.96
2019-02-24T10:50:43.566Z,47.65
2019-02-24T10:55:50.121Z,48.26
2019-02-24T11:00:52.187Z,47.37
2019-02-24T11:05:54.240Z,46.38
2019-02-24T11:10:56.470Z,45.71
2019-02-24T11:15:58.479Z,46.05
2019-02-24T11:21:02.995Z,45.91
2019-02-24T11:26:05.063Z,46.13
2019-02-24T11:31:07.206Z,46.08
2019-02-24T11:36:09.224Z,45.12
2019-02-24T11:41:11.352Z,45.62
2019-02-24T11:46:15.326Z,46.16
2019-02-24T11:51:17.379Z,45.77
2019-02-24T11:56:19.767Z,45.60
2019-02-24T12:01:22.069Z,47.04
2019-02-24T12:06:27.127Z,46.34
2019-02-24T12:11:29.463Z,46.19
2019-02-24T12:16:31.581Z,44.05
2019-02-24T12:21:33.608Z,42.30
2019-02-24T12:26:38.655Z,41.66
2019-02-24T12:31:40.742Z,41.18
2019-02-24T12:36:43.271Z,42.17
2019-02-24T12:41:45.319Z,40.86
2019-02-24T12:46:49.902Z,40.87
2019-02-24T12:51:54.254Z,40.95
2019-02-24T12:56:56.482Z,42.03
2019-02-24T13:02:05.518Z,44.44
2019-02-24T13:07:04.590Z,42.65
2019-02-24T13:12:06.668Z,43.47
2019-02-24T13:29:12.375Z,43.15
2019-02-24T13:34:14.598Z,42.89
2019-02-24T13:39:16.744Z,41.56
2019-02-24T13:44:18.812Z,42.14
2019-02-24T13:49:20.824Z,41.57
2019-02-24T13:54:23.114Z,42.33
2019-02-24T13:59:25.279Z,40.85
2019-02-24T14:04:27.325Z,39.86
2019-02-24T14:09:29.428Z,41.16
2019-02-24T14:14:31.558Z,40.56
2019-02-24T14:19:33.534Z,40.11
2019-02-24T14:24:37.432Z,40.65
2019-02-24T14:29:39.538Z,42.45
2019-02-24T14:34:41.576Z,43.34
2019-02-24T14:39:43.937Z,41.28
2019-02-24T14:44:45.963Z,41.56
2019-02-24T14:49:48.140Z,42.41
2019-02-24T14:54:56.129Z,43.12
2019-02-24T14:59:58.279Z,42.80
2019-02-24T15:05:00.558Z,41.96
2019-02-24T15:10:03.737Z,42.61
2019-02-24T15:15:07.385Z,42.52
2019-02-24T15:20:14.008Z,42.45
2019-02-24T15:25:16.541Z,42.85
2019-02-24T15:30:24.459Z,43.07
2019-02-24T15:35:27.106Z,40.76
2019-02-24T15:40:31.780Z,40.52
2019-02-24T15:45:36.447Z,39.09
2019-02-24T15:50:38.582Z,39.03
2019-02-24T15:55:40.695Z,39.39
2019-02-24T16:00:42.719Z,39.85
2019-02-24T16:05:44.950Z,40.59
2019-02-24T16:10:47.025Z,39.31
2019-02-24T16:15:49.198Z,39.31
2019-02-24T16:20:51.451Z,39.46
2019-02-24T16:25:53.744Z,39.99
2019-02-24T16:30:55.752Z,42.12
2019-02-24T16:35:59.708Z,41.16
2019-02-24T16:41:01.739Z,43.00
2019-02-24T16:46:03.820Z,42.01
2019-02-24T16:51:05.964Z,43.21
2019-02-24T16:56:08.132Z,44.04
2019-02-24T17:01:10.710Z,44.80
2019-02-24T17:06:12.868Z,44.80
2019-02-24T17:11:14.903Z,44.65
2019-02-24T17:16:17.282Z,44.34
2019-02-24T17:21:22.375Z,46.78
2019-02-24T17:26:24.570Z,46.34
2019-02-24T17:31:29.414Z,45.57
2019-02-24T17:36:31.718Z,46.52
2019-02-24T17:41:33.740Z,46.68
2019-02-24T17:46:37.095Z,47.11
2019-02-24T17:51:40.906Z,47.66
2019-02-24T17:56:43.947Z,48.41
2019-02-24T18:01:45.954Z,48.98
2019-02-24T18:06:48.129Z,49.45
2019-02-24T18:11:50.125Z,49.81
2019-02-24T18:16:53.783Z,49.80
2019-02-24T18:21:57.189Z,49.13
2019-02-24T18:26:59.262Z,49.63
2019-02-24T18:32:04.047Z,50.35
2019-02-24T18:37:06.067Z,50.83
2019-02-24T18:42:08.093Z,49.66
2019-02-24T18:47:10.109Z,50.36
2019-02-24T18:52:16.137Z,49.44
2019-02-24T18:57:18.369Z,49.65
2019-02-24T19:02:23.432Z,50.34
2019-02-24T19:07:25.699Z,49.44
2019-02-24T19:12:27.757Z,47.54
2019-02-24T19:17:30.967Z,48.02
2019-02-24T19:22:32.972Z,49.50
2019-02-24T19:27:37.014Z,49.02
2019-02-24T19:32:40.260Z,53.04
2019-02-24T19:37:44.061Z,52.54
2019-02-24T19:42:46.067Z,51.83
2019-02-24T19:47:49.515Z,52.29
2019-02-24T19:52:51.645Z,52.19
2019-02-24T19:57:56.901Z,52.59
2019-02-24T20:03:01.115Z,54.77
2019-02-24T20:08:03.397Z,53.59
2019-02-24T20:13:05.378Z,55.01
2019-02-24T20:18:10.084Z,55.90
2019-02-24T20:23:12.111Z,56.94
2019-02-24T20:28:14.114Z,57.36
2019-02-24T20:33:16.195Z,58.04
2019-02-24T20:38:18.552Z,59.83
2019-02-24T20:43:20.645Z,60.06
2019-02-24T20:48:23.293Z,60.00
2019-02-24T20:53:25.364Z,60.64
2019-02-24T20:58:29.495Z,61.66
2019-02-24T21:03:31.600Z,60.12
2019-02-24T21:08:33.882Z,59.80
2019-02-24T21:13:35.867Z,59.04
2019-02-24T21:18:43.930Z,60.99
2019-02-24T21:23:46.051Z,59.95
2019-02-24T21:28:49.723Z,58.77
2019-02-24T21:33:51.754Z,60.45
2019-02-24T21:38:54.060Z,59.51
2019-02-24T21:43:58.858Z,61.50
2019-02-24T21:49:01.634Z,60.12
2019-02-24T21:54:03.647Z,60.92
2019-02-24T21:59:06.535Z,62.12
2019-02-24T22:04:08.654Z,64.20
2019-02-24T22:09:11.510Z,65.00
2019-02-24T22:14:15.747Z,62.31
2019-02-24T22:19:19.222Z,65.45
2019-02-24T22:24:21.301Z,63.44
2019-02-24T22:29:23.347Z,64.66
2019-02-24T22:34:25.366Z,64.45
2019-02-24T22:39:27.604Z,65.24
2019-02-24T22:44:32.200Z,62.26
2019-02-24T22:49:34.436Z,64.98
2019-02-24T22:54:36.434Z,64.71
2019-02-24T22:59:38.580Z,65.01
2019-02-24T23:04:43.388Z,68.28
2019-02-24T23:09:47.444Z,67.32
2019-02-24T23:14:50.775Z,67.10
2019-02-24T23:19:52.981Z,67.12
2019-02-24T23:24:56.115Z,66.99
2019-02-24T23:29:59.567Z,64.31
2019-02-24T23:35:07.197Z,67.19
2019-02-24T23:40:09.155Z,69.96
2019-02-24T23:45:11.180Z,66.94
2019-02-24T23:50:15.051Z,68.56
2019-02-24T23:55:18.229Z,67.00
